createdAt,value
2022-11-05T00:02:15.616Z,5.05
2022-11-05T00:04:57.728Z,4.75
2022-11-05T00:07:42.499Z,4.43
2022-11-05T00:10:17.201Z,4.45
2022-11-05T00:12:59.121Z,4.75
2022-11-05T00:15:43.707Z,4.28
2022-11-05T00:18:13.184Z,4.15
2022-11-05T00:20:42.669Z,4.10
2022-11-05T00:23:24.606Z,3.70
2022-11-05T00:25:57.927Z,4.07
2022-11-05T00:28:27.750Z,4.07
2022-11-05T00:31:03.001Z,3.83
2022-11-05T00:33:33.084Z,4.15
2022-11-05T00:36:04.814Z,4.10
2022-11-05T00:38:34.997Z,3.78
2022-11-05T00:41:04.604Z,3.83
2022-11-05T00:43:46.465Z,4.55
2022-11-05T00:46:18.573Z,3.28
2022-11-05T00:49:00.534Z,3.40
2022-11-05T00:51:30.069Z,3.22
2022-11-05T00:53:59.531Z,4.07
2022-11-05T00:56:29.020Z,3.88
2022-11-05T00:58:58.502Z,4.35
2022-11-05T01:01:30.729Z,3.80
2022-11-05T01:04:00.303Z,3.67
2022-11-05T01:06:29.743Z,3.85
2022-11-05T01:08:59.243Z,3.75
2022-11-05T01:11:37.742Z,4.53
2022-11-05T01:14:08.273Z,4.00
2022-11-05T01:16:40.521Z,3.78
2022-11-05T01:19:11.020Z,3.55
2022-11-05T01:21:40.546Z,3.55
2022-11-05T01:24:10.587Z,3.85
2022-11-05T01:26:40.090Z,4.40
2022-11-05T01:29:09.592Z,4.38
2022-11-05T01:31:41.662Z,3.80
2022-11-05T01:34:11.165Z,4.28
2022-11-05T01:36:40.587Z,3.60
2022-11-05T01:39:10.296Z,3.83
2022-11-05T01:41:39.733Z,4.07
2022-11-05T01:44:09.288Z,4.43
2022-11-05T01:46:42.870Z,4.03
2022-11-05T01:49:16.372Z,3.95
2022-11-05T01:51:47.387Z,4.10
2022-11-05T01:54:19.052Z,3.45
2022-11-05T01:56:49.985Z,3.63
2022-11-05T01:59:21.409Z,4.18
2022-11-05T02:01:53.794Z,3.90
2022-11-05T02:04:27.553Z,4.00
2022-11-05T02:06:57.341Z,3.55
2022-11-05T02:09:30.498Z,3.30
2022-11-05T02:12:00.396Z,3.10
2022-11-05T02:14:29.824Z,4.07
2022-11-05T02:17:04.708Z,3.10
2022-11-05T02:19:49.195Z,3.38
2022-11-05T02:22:38.207Z,3.30
2022-11-05T02:25:20.198Z,2.97
2022-11-05T02:28:06.831Z,3.40
2022-11-05T02:30:45.194Z,2.88
2022-11-05T02:33:22.239Z,3.42
2022-11-05T02:36:02.756Z,2.65
2022-11-05T02:38:39.026Z,3.38
2022-11-05T02:41:11.205Z,3.28
2022-11-05T02:43:47.403Z,3.03
2022-11-05T02:46:26.781Z,3.03
2022-11-05T02:49:00.788Z,3.13
2022-11-05T02:51:34.324Z,3.25
2022-11-05T02:54:08.191Z,3.20
2022-11-05T02:56:39.631Z,3.55
2022-11-05T02:59:09.193Z,3.22
2022-11-05T03:01:41.933Z,3.15
2022-11-05T03:04:13.274Z,3.60
2022-11-05T03:06:56.340Z,3.97
2022-11-05T03:09:43.506Z,4.00
2022-11-05T03:12:19.568Z,3.55
2022-11-05T03:14:54.759Z,3.65
2022-11-05T03:17:30.898Z,3.92
2022-11-05T03:20:04.591Z,3.65
2022-11-05T03:22:37.442Z,3.67
2022-11-05T03:25:11.047Z,3.70
2022-11-05T03:27:42.199Z,3.80
2022-11-05T03:30:13.341Z,3.38
2022-11-05T03:32:47.707Z,3.45
2022-11-05T03:35:19.504Z,3.67
2022-11-05T03:37:51.099Z,3.55
2022-11-05T03:40:21.577Z,3.55
2022-11-05T03:42:53.018Z,2.85
2022-11-05T03:45:24.623Z,2.78
2022-11-05T03:47:59.618Z,2.88
2022-11-05T03:50:37.161Z,2.55
2022-11-05T03:53:14.541Z,2.50
2022-11-05T03:55:47.495Z,2.40
2022-11-05T03:58:17.262Z,2.63
2022-11-05T04:00:46.681Z,2.55
2022-11-05T04:03:18.686Z,2.97
2022-11-05T04:06:09.056Z,3.35
2022-11-05T04:08:50.918Z,3.15
2022-11-05T04:11:32.824Z,2.72
2022-11-05T04:14:02.306Z,2.75
2022-11-05T04:16:44.187Z,3.00
2022-11-05T04:19:36.418Z,3.22
2022-11-05T04:22:18.382Z,2.90
2022-11-05T04:24:47.929Z,3.10
2022-11-05T04:27:17.406Z,3.33
2022-11-05T04:29:59.411Z,3.17
2022-11-05T04:32:28.887Z,3.90
2022-11-05T04:35:01.026Z,3.20
2022-11-05T04:37:30.535Z,4.13
2022-11-05T04:40:00.039Z,3.60
2022-11-05T04:42:30.489Z,3.60
2022-11-05T04:44:59.869Z,3.97
2022-11-05T04:47:29.344Z,3.70
2022-11-05T04:50:01.670Z,4.70
2022-11-05T04:52:31.169Z,3.45
2022-11-05T04:55:00.623Z,3.90
2022-11-05T04:57:30.090Z,3.20
2022-11-05T04:59:59.713Z,4.30
2022-11-05T05:02:29.180Z,3.97
2022-11-05T05:05:01.274Z,4.40
2022-11-05T05:07:31.254Z,4.65
2022-11-05T05:10:00.762Z,5.18
2022-11-05T05:12:30.514Z,5.45
2022-11-05T05:15:00.096Z,4.97
2022-11-05T05:17:29.532Z,5.13
2022-11-05T05:20:14.078Z,5.90
2022-11-05T05:22:43.574Z,5.72
2022-11-05T05:25:13.026Z,6.43
2022-11-05T05:27:42.609Z,5.90
2022-11-05T05:30:12.870Z,6.05
2022-11-05T05:32:42.403Z,5.47
2022-11-05T05:35:14.792Z,4.85
2022-11-05T05:37:44.442Z,4.43
2022-11-05T05:40:14.317Z,4.25
2022-11-05T05:42:43.808Z,4.72
2022-11-05T05:45:14.028Z,5.10
2022-11-05T05:47:43.485Z,5.05
2022-11-05T05:50:15.796Z,5.20
2022-11-05T05:52:45.270Z,5.50
2022-11-05T05:55:14.813Z,5.43
2022-11-05T05:57:44.257Z,4.70
2022-11-05T06:00:14.605Z,4.38
2022-11-05T06:02:44.204Z,4.28
2022-11-05T06:05:16.457Z,4.25
2022-11-05T06:07:45.900Z,5.28
2022-11-05T06:10:15.388Z,5.78
2022-11-05T06:12:44.960Z,5.82
2022-11-05T06:15:14.358Z,6.03
2022-11-05T06:17:45.776Z,5.13
2022-11-05T06:20:17.874Z,4.85
2022-11-05T06:22:47.630Z,5.20
2022-11-05T06:25:17.070Z,4.95
2022-11-05T06:27:46.571Z,5.60
2022-11-05T06:30:17.658Z,5.82
2022-11-05T06:32:47.178Z,5.53
2022-11-05T06:35:19.311Z,5.55
2022-11-05T06:37:48.746Z,5.85
2022-11-05T06:40:18.184Z,5.15
2022-11-05T06:42:47.707Z,4.93
2022-11-05T06:45:17.239Z,5.45
2022-11-05T06:47:46.699Z,4.50
2022-11-05T06:50:16.194Z,4.60
2022-11-05T06:52:48.400Z,4.95
2022-11-05T06:55:18.205Z,5.40
2022-11-05T06:57:47.645Z,5.03
2022-11-05T07:00:18.101Z,4.60
2022-11-05T07:02:47.932Z,5.55
2022-11-05T07:05:17.773Z,5.20
2022-11-05T07:07:49.854Z,5.63
2022-11-05T07:10:20.217Z,5.97
2022-11-05T07:12:51.261Z,5.93
2022-11-05T07:15:20.942Z,5.28
2022-11-05T07:17:50.444Z,5.20
2022-11-05T07:20:20.185Z,5.43
2022-11-05T07:22:52.288Z,5.75
2022-11-05T07:25:21.780Z,5.57
2022-11-05T07:27:51.220Z,6.03
2022-11-05T07:30:20.826Z,5.32
2022-11-05T07:32:50.251Z,5.30
2022-11-05T07:35:19.834Z,5.70
2022-11-05T07:37:54.075Z,5.90
2022-11-05T07:40:24.350Z,6.07
2022-11-05T07:42:54.687Z,6.45
2022-11-05T07:45:24.197Z,6.03
2022-11-05T07:47:54.562Z,5.45
2022-11-05T07:50:25.281Z,5.38
2022-11-05T07:53:02.126Z,6.55
2022-11-05T07:55:31.685Z,5.00
2022-11-05T07:58:01.125Z,6.43
2022-11-05T08:00:30.965Z,6.95
2022-11-05T08:03:08.700Z,6.90
2022-11-05T08:05:39.417Z,7.00
2022-11-05T08:08:12.183Z,6.55
2022-11-05T08:10:41.762Z,6.53
2022-11-05T08:13:12.123Z,6.43
2022-11-05T08:15:42.757Z,6.40
2022-11-05T08:18:13.658Z,6.28
2022-11-05T08:20:43.884Z,7.10
2022-11-05T08:23:16.260Z,6.32
2022-11-05T08:25:45.954Z,6.97
2022-11-05T08:28:15.730Z,6.90
2022-11-05T08:30:45.417Z,6.70
2022-11-05T08:33:15.698Z,7.25
2022-11-05T08:35:45.521Z,6.05
2022-11-05T08:38:18.513Z,6.78
2022-11-05T08:40:49.525Z,6.03
2022-11-05T08:43:19.029Z,7.20
2022-11-05T08:45:49.428Z,7.32
2022-11-05T08:48:20.026Z,6.78
2022-11-05T08:50:50.329Z,6.90
2022-11-05T08:53:22.591Z,6.10
2022-11-05T08:55:54.809Z,6.68
2022-11-05T08:58:25.366Z,6.47
2022-11-05T09:00:58.972Z,6.65
2022-11-05T09:03:31.348Z,5.95
2022-11-05T09:06:00.846Z,6.15
2022-11-05T09:08:32.923Z,7.38
2022-11-05T09:11:02.517Z,6.68
2022-11-05T09:13:31.965Z,7.63
2022-11-05T09:16:01.833Z,6.05
2022-11-05T09:18:31.430Z,6.68
2022-11-05T09:21:00.951Z,6.10
2022-11-05T09:23:33.074Z,6.97
2022-11-05T09:26:02.619Z,6.78
2022-11-05T09:28:32.518Z,6.22
2022-11-05T09:31:03.701Z,6.55
2022-11-05T09:33:33.194Z,6.25
2022-11-05T09:36:02.918Z,6.05
2022-11-05T09:38:35.337Z,7.45
2022-11-05T09:41:05.954Z,6.28
2022-11-05T09:43:37.842Z,6.35
2022-11-05T09:46:10.840Z,6.93
2022-11-05T09:48:40.802Z,7.00
2022-11-05T09:51:10.336Z,7.05
2022-11-05T09:53:43.532Z,8.02
2022-11-05T09:56:18.262Z,6.38
2022-11-05T09:58:50.615Z,7.10
2022-11-05T10:01:24.313Z,7.22
2022-11-05T10:03:55.838Z,7.20
2022-11-05T10:06:26.314Z,7.78
2022-11-05T10:09:00.737Z,7.75
2022-11-05T10:11:33.287Z,6.95
2022-11-05T10:14:06.145Z,7.03
2022-11-05T10:16:38.044Z,7.13
2022-11-05T10:19:10.526Z,6.65
2022-11-05T10:24:33.043Z,7.15
2022-11-05T10:27:02.545Z,6.97
2022-11-05T10:29:33.027Z,6.82
2022-11-05T10:32:05.647Z,7.40
2022-11-05T10:34:36.163Z,7.53
2022-11-05T10:37:06.032Z,7.85
2022-11-05T10:39:38.115Z,7.70
2022-11-05T10:42:19.065Z,7.53
2022-11-05T10:44:52.747Z,7.18
2022-11-05T10:47:35.270Z,6.30
2022-11-05T10:50:05.401Z,6.13
2022-11-05T10:52:36.680Z,6.13
2022-11-05T10:55:10.209Z,6.47
2022-11-05T10:57:41.196Z,6.28
2022-11-05T11:00:24.894Z,6.10
2022-11-05T11:02:55.838Z,5.90
2022-11-05T11:05:26.425Z,6.05
2022-11-05T11:08:00.323Z,5.90
2022-11-05T11:10:33.497Z,6.28
2022-11-05T11:13:03.023Z,6.18
2022-11-05T11:15:35.300Z,6.90
2022-11-05T11:18:26.512Z,6.15
2022-11-05T11:20:56.087Z,6.53
2022-11-05T11:23:25.532Z,6.18
2022-11-05T11:26:03.752Z,6.00
2022-11-05T11:28:35.022Z,5.97
2022-11-05T11:31:07.594Z,6.30
2022-11-05T11:33:37.939Z,5.22
2022-11-05T11:36:08.019Z,4.85
2022-11-05T11:38:38.580Z,5.18
2022-11-05T11:41:23.803Z,4.80
2022-11-05T11:43:56.950Z,5.80
2022-11-05T11:46:26.555Z,5.78
2022-11-05T11:48:56.034Z,6.68
2022-11-05T11:51:34.290Z,5.75
2022-11-05T11:54:04.485Z,6.00
2022-11-05T11:56:45.780Z,6.40
2022-11-05T11:59:19.893Z,5.80
2022-11-05T12:01:58.385Z,6.18
2022-11-05T12:04:48.606Z,6.25
2022-11-05T12:07:33.142Z,6.45
2022-11-05T12:10:10.862Z,6.70
2022-11-05T12:12:47.310Z,5.70
2022-11-05T12:15:27.415Z,6.07
2022-11-05T12:18:00.846Z,6.07
2022-11-05T12:20:33.884Z,5.88
2022-11-05T12:23:13.873Z,5.90
2022-11-05T12:25:46.917Z,6.40
2022-11-05T12:28:32.614Z,6.63
2022-11-05T12:31:08.642Z,5.22
2022-11-05T12:33:43.170Z,6.50
2022-11-05T12:36:16.621Z,5.82
2022-11-05T12:38:53.374Z,5.72
2022-11-05T12:41:26.265Z,5.75
2022-11-05T12:44:06.069Z,7.07
2022-11-05T12:46:39.176Z,5.55
2022-11-05T12:49:30.899Z,5.93
2022-11-05T12:52:21.247Z,6.50
2022-11-05T12:54:58.892Z,6.13
2022-11-05T12:57:29.715Z,5.57
2022-11-05T13:00:06.396Z,5.95
2022-11-05T13:02:38.093Z,6.20
2022-11-05T13:05:09.203Z,6.32
2022-11-05T13:07:41.775Z,5.80
2022-11-05T13:10:29.553Z,6.50
2022-11-05T13:13:02.318Z,6.25
2022-11-05T13:15:36.654Z,5.40
2022-11-05T13:18:08.095Z,5.53
2022-11-05T13:20:40.475Z,6.22
2022-11-05T13:23:16.224Z,5.63
2022-11-05T13:25:49.370Z,5.20
2022-11-05T13:28:21.075Z,4.88
2022-11-05T13:30:54.950Z,5.10
2022-11-05T13:33:26.525Z,6.22
2022-11-05T13:36:17.947Z,4.78
2022-11-05T13:38:59.482Z,7.25
2022-11-05T13:41:33.255Z,8.57
2022-11-05T13:44:17.470Z,7.10
2022-11-05T13:46:56.614Z,7.30
2022-11-05T13:49:43.678Z,7.55
2022-11-05T13:52:21.370Z,5.72
2022-11-05T13:55:13.080Z,4.40
2022-11-05T13:57:57.431Z,4.25
2022-11-05T14:00:28.538Z,4.53
2022-11-05T14:03:02.795Z,4.80
2022-11-05T14:05:33.647Z,4.25
2022-11-05T14:08:10.670Z,4.75
2022-11-05T14:10:41.435Z,4.57
2022-11-05T14:13:20.722Z,5.28
2022-11-05T14:16:01.024Z,3.65
2022-11-05T14:18:54.013Z,4.95
2022-11-05T14:21:47.945Z,3.95
2022-11-05T14:24:42.637Z,5.30
2022-11-05T14:27:27.311Z,4.75
2022-11-05T14:29:56.869Z,4.88
2022-11-05T14:32:27.451Z,5.45
2022-11-05T14:34:58.161Z,5.63
2022-11-05T14:37:31.698Z,5.03
2022-11-05T14:40:05.926Z,4.95
2022-11-05T14:42:35.942Z,5.35
2022-11-05T14:45:08.953Z,4.70
2022-11-05T14:47:39.383Z,4.75
2022-11-05T14:50:13.405Z,4.38
2022-11-05T14:52:53.498Z,5.47
2022-11-05T14:55:28.616Z,5.45
2022-11-05T14:58:09.273Z,6.95
2022-11-05T15:00:45.997Z,6.05
2022-11-05T15:03:31.982Z,5.03
2022-11-05T15:06:07.336Z,5.25
2022-11-05T15:08:55.085Z,5.60
2022-11-05T15:11:26.559Z,6.05
2022-11-05T15:14:03.290Z,6.18
2022-11-05T15:16:33.644Z,5.43
2022-11-05T15:19:03.317Z,6.13
2022-11-05T15:21:34.835Z,4.97
2022-11-05T15:24:07.373Z,5.28
2022-11-05T15:26:41.796Z,5.20
2022-11-05T15:29:18.902Z,5.45
2022-11-05T15:31:48.632Z,4.65
2022-11-05T15:34:22.604Z,4.95
2022-11-05T15:36:53.580Z,5.45
2022-11-05T15:39:32.240Z,5.32
2022-11-05T15:42:02.276Z,5.75
2022-11-05T15:44:33.097Z,5.38
2022-11-05T15:47:09.618Z,5.63
2022-11-05T15:49:39.343Z,5.20
2022-11-05T15:52:09.246Z,5.22
2022-11-05T15:54:41.338Z,5.25
2022-11-05T15:57:20.314Z,5.40
2022-11-05T15:59:50.011Z,5.43
2022-11-05T16:02:28.846Z,5.15
2022-11-05T16:04:59.146Z,5.53
2022-11-05T16:07:28.716Z,5.85
2022-11-05T16:10:02.230Z,5.35
2022-11-05T16:12:35.946Z,5.40
2022-11-05T16:15:19.823Z,5.57
2022-11-05T16:17:51.133Z,5.68
2022-11-05T16:20:22.077Z,6.05
2022-11-05T16:22:53.031Z,5.80
2022-11-05T16:25:37.690Z,6.00
2022-11-05T16:28:07.981Z,6.88
2022-11-05T16:30:37.450Z,6.57
2022-11-05T16:33:09.110Z,5.90
2022-11-05T16:35:42.003Z,6.85
2022-11-05T16:38:14.647Z,6.53
2022-11-05T16:40:47.011Z,7.25
2022-11-05T16:43:21.184Z,5.60
2022-11-05T16:45:50.811Z,6.38
2022-11-05T16:48:20.708Z,7.13
2022-11-05T16:50:50.280Z,6.57
2022-11-05T16:53:19.718Z,7.00
2022-11-05T16:55:52.372Z,6.53
2022-11-05T16:58:23.279Z,6.63
2022-11-05T17:00:53.556Z,6.80
2022-11-05T17:03:23.121Z,7.95
2022-11-05T17:05:52.653Z,7.88
2022-11-05T17:08:22.220Z,6.47
2022-11-05T17:10:54.461Z,6.75
2022-11-05T17:13:24.046Z,6.80
2022-11-05T17:15:54.052Z,6.80
2022-11-05T17:18:23.998Z,9.27
2022-11-05T17:20:54.693Z,8.50
2022-11-05T17:23:26.809Z,6.82
2022-11-05T17:26:01.954Z,6.72
2022-11-05T17:28:32.952Z,7.22
2022-11-05T17:31:02.510Z,7.15
2022-11-05T17:33:32.487Z,8.95
2022-11-05T17:36:02.076Z,6.07
2022-11-05T17:38:31.881Z,6.70
2022-11-05T17:41:04.117Z,7.30
2022-11-05T17:43:33.624Z,6.95
2022-11-05T17:46:04.656Z,6.82
2022-11-05T17:48:34.479Z,7.43
2022-11-05T17:51:03.964Z,14.27
2022-11-05T17:53:33.956Z,9.85
2022-11-05T17:56:10.253Z,6.63
2022-11-05T17:58:39.871Z,6.15
2022-11-05T18:01:10.270Z,6.28
2022-11-05T18:03:39.890Z,6.60
2022-11-05T18:06:10.323Z,5.90
2022-11-05T18:08:39.926Z,7.65
2022-11-05T18:11:12.180Z,9.27
2022-11-05T18:13:41.877Z,7.85
2022-11-05T18:16:11.776Z,7.68
2022-11-05T18:18:41.329Z,8.15
2022-11-05T18:21:10.872Z,6.53
2022-11-05T18:23:40.397Z,6.40
2022-11-05T18:26:14.379Z,7.68
2022-11-05T18:28:44.070Z,7.05
2022-11-05T18:31:18.127Z,7.50
2022-11-05T18:33:48.141Z,7.10
2022-11-05T18:36:19.875Z,7.30
2022-11-05T18:38:49.490Z,9.73
2022-11-05T18:41:21.932Z,8.35
2022-11-05T18:43:51.694Z,7.95
2022-11-05T18:46:43.517Z,6.90
2022-11-05T18:49:13.284Z,7.20
2022-11-05T18:51:43.195Z,7.32
2022-11-05T18:54:12.677Z,9.98
2022-11-05T18:56:45.590Z,8.00
2022-11-05T18:59:35.900Z,7.35
2022-11-05T19:02:05.474Z,12.70
2022-11-05T19:04:35.141Z,12.52
2022-11-05T19:07:05.721Z,10.07
2022-11-05T19:09:35.708Z,9.13
2022-11-05T19:12:08.685Z,9.85
2022-11-05T19:14:38.821Z,9.70
2022-11-05T19:17:08.344Z,9.18
2022-11-05T19:19:37.751Z,8.95
2022-11-05T19:22:07.766Z,8.80
2022-11-05T19:24:37.207Z,8.32
2022-11-05T19:27:09.431Z,8.90
2022-11-05T19:29:38.957Z,9.07
2022-11-05T19:32:09.270Z,9.45
2022-11-05T19:34:38.796Z,9.63
2022-11-05T19:37:08.345Z,9.05
2022-11-05T19:39:38.794Z,9.32
2022-11-05T19:42:11.012Z,8.75
2022-11-05T19:44:40.932Z,8.23
2022-11-05T19:47:10.394Z,9.35
2022-11-05T19:49:40.257Z,7.70
2022-11-05T19:52:09.735Z,9.20
2022-11-05T19:54:39.941Z,10.43
2022-11-05T19:57:12.670Z,9.23
2022-11-05T19:59:42.202Z,8.27
2022-11-05T20:02:16.251Z,8.00
2022-11-05T20:04:46.183Z,8.25
2022-11-05T20:07:15.632Z,7.75
2022-11-05T20:09:45.088Z,8.88
2022-11-05T20:12:17.166Z,8.07
2022-11-05T20:14:46.698Z,7.50
2022-11-05T20:17:16.117Z,7.47
2022-11-05T20:19:45.618Z,8.00
2022-11-05T20:22:15.034Z,8.60
2022-11-05T20:24:44.603Z,8.52
2022-11-05T20:27:14.522Z,8.85
2022-11-05T20:29:46.631Z,8.90
2022-11-05T20:32:16.141Z,9.45
2022-11-05T20:34:45.629Z,8.77
2022-11-05T20:37:15.037Z,13.50
2022-11-05T20:39:44.563Z,11.50
2022-11-05T20:42:14.173Z,10.85
2022-11-05T20:44:46.450Z,18.88
2022-11-05T20:47:16.222Z,18.90
2022-11-05T20:49:45.697Z,12.38
2022-11-05T20:52:17.300Z,8.98
2022-11-05T20:54:47.385Z,7.70
2022-11-05T20:57:16.914Z,8.25
2022-11-05T20:59:48.986Z,7.63
2022-11-05T21:02:18.614Z,8.57
2022-11-05T21:04:48.182Z,8.05
2022-11-05T21:07:17.732Z,9.23
2022-11-05T21:09:47.228Z,7.75
2022-11-05T21:12:18.377Z,8.05
2022-11-05T21:14:51.108Z,8.27
2022-11-05T21:17:20.751Z,7.97
2022-11-05T21:19:50.259Z,7.65
2022-11-05T21:22:19.998Z,7.75
2022-11-05T21:24:49.603Z,7.95
2022-11-05T21:27:19.033Z,8.13
2022-11-05T21:29:51.331Z,8.98
2022-11-05T21:32:20.870Z,8.48
2022-11-05T21:34:50.355Z,8.68
2022-11-05T21:37:20.465Z,8.75
2022-11-05T21:39:49.895Z,8.02
2022-11-05T21:42:19.294Z,7.90
2022-11-05T21:44:53.989Z,8.70
2022-11-05T21:47:27.313Z,8.35
2022-11-05T21:49:56.816Z,6.75
2022-11-05T21:52:38.752Z,7.57
2022-11-05T21:55:21.240Z,7.13
2022-11-05T21:58:03.150Z,7.05
2022-11-05T22:00:35.314Z,7.88
2022-11-05T22:03:04.838Z,6.22
2022-11-05T22:05:34.489Z,6.60
2022-11-05T22:08:04.062Z,6.75
2022-11-05T22:10:33.612Z,6.93
2022-11-05T22:13:03.651Z,6.72
2022-11-05T22:15:35.724Z,7.25
2022-11-05T22:18:05.269Z,7.90
2022-11-05T22:20:34.724Z,7.40
2022-11-05T22:23:07.415Z,6.78
2022-11-05T22:25:40.660Z,6.82
2022-11-05T22:28:10.530Z,7.25
2022-11-05T22:30:42.988Z,7.82
2022-11-05T22:33:12.499Z,6.30
2022-11-05T22:35:42.332Z,6.57
2022-11-05T22:38:12.920Z,6.93
2022-11-05T22:40:42.766Z,7.50
2022-11-05T22:43:12.231Z,8.30
2022-11-05T22:45:44.562Z,8.27
2022-11-05T22:48:14.592Z,9.20
2022-11-05T22:50:44.369Z,7.53
2022-11-05T22:53:13.844Z,7.40
2022-11-05T22:55:43.305Z,8.23
2022-11-05T22:58:13.027Z,8.07
2022-11-05T23:00:45.355Z,8.60
2022-11-05T23:03:14.948Z,8.35
2022-11-05T23:05:44.476Z,8.77
2022-11-05T23:08:26.451Z,9.30
2022-11-05T23:11:23.391Z,12.70
2022-11-05T23:13:52.895Z,9.02
2022-11-05T23:16:37.405Z,7.95
2022-11-05T23:19:19.341Z,8.20
2022-11-05T23:22:01.238Z,7.57
2022-11-05T23:24:30.902Z,8.55
2022-11-05T23:27:00.363Z,8.85
2022-11-05T23:29:30.344Z,7.80
2022-11-05T23:32:14.774Z,7.30
2022-11-05T23:34:44.489Z,7.28
2022-11-05T23:37:26.378Z,7.13
2022-11-05T23:39:56.169Z,7.05
2022-11-05T23:42:38.253Z,6.22
2022-11-05T23:45:20.963Z,7.55
2022-11-05T23:48:05.616Z,7.53
2022-11-05T23:50:39.585Z,6.40
2022-11-05T23:53:09.695Z,6.15
2022-11-05T23:55:39.651Z,6.93
2022-11-05T23:58:09.782Z,7.10
